sensor_id;sensor_type;location;lat;lon;timestamp;P1;durP1;ratioP1;P2;durP2;ratioP2
6249;SDS011;3158;52.148;11.568;2023-07-13T00:01:58;1.00;;;0.90;;
6249;SDS011;3158;52.148;11.568;2023-07-13T00:06:59;1.30;;;0.80;;
6249;SDS011;3158;52.148;11.568;2023-07-13T00:12:01;0.60;;;0.60;;
6249;SDS011;3158;52.148;11.568;2023-07-13T00:17:02;0.80;;;0.80;;
6249;SDS011;3158;52.148;11.568;2023-07-13T00:22:03;0.70;;;0.70;;
6249;SDS011;3158;52.148;11.568;2023-07-13T00:27:04;0.85;;;0.85;;
6249;SDS011;3158;52.148;11.568;2023-07-13T00:32:06;1.85;;;1.20;;
6249;SDS011;3158;52.148;11.568;2023-07-13T00:37:10;0.82;;;0.82;;
6249;SDS011;3158;52.148;11.568;2023-07-13T00:42:11;0.80;;;0.80;;
6249;SDS011;3158;52.148;11.568;2023-07-13T00:47:12;1.40;;;0.98;;
6249;SDS011;3158;52.148;11.568;2023-07-13T00:52:14;0.80;;;0.80;;
6249;SDS011;3158;52.148;11.568;2023-07-13T00:57:19;1.23;;;0.85;;
6249;SDS011;3158;52.148;11.568;2023-07-13T01:02:21;1.77;;;0.88;;
6249;SDS011;3158;52.148;11.568;2023-07-13T01:07:23;0.90;;;0.90;;
6249;SDS011;3158;52.148;11.568;2023-07-13T01:12:24;0.90;;;0.77;;
6249;SDS011;3158;52.148;11.568;2023-07-13T01:17:25;0.80;;;0.80;;
6249;SDS011;3158;52.148;11.568;2023-07-13T01:22:27;0.80;;;0.80;;
6249;SDS011;3158;52.148;11.568;2023-07-13T01:27:28;2.22;;;1.13;;
6249;SDS011;3158;52.148;11.568;2023-07-13T01:32:29;1.13;;;1.13;;
6249;SDS011;3158;52.148;11.568;2023-07-13T01:37:31;1.23;;;0.88;;
6249;SDS011;3158;52.148;11.568;2023-07-13T01:42:33;3.22;;;1.30;;
6249;SDS011;3158;52.148;11.568;2023-07-13T01:47:34;2.20;;;1.00;;
6249;SDS011;3158;52.148;11.568;2023-07-13T01:52:35;1.15;;;1.05;;
6249;SDS011;3158;52.148;11.568;2023-07-13T01:57:36;1.13;;;1.13;;
6249;SDS011;3158;52.148;11.568;2023-07-13T02:02:37;1.08;;;1.08;;
6249;SDS011;3158;52.148;11.568;2023-07-13T02:07:39;1.40;;;1.40;;
6249;SDS011;3158;52.148;11.568;2023-07-13T02:12:40;1.10;;;1.10;;
6249;SDS011;3158;52.148;11.568;2023-07-13T02:17:41;3.88;;;1.05;;
6249;SDS011;3158;52.148;11.568;2023-07-13T02:22:42;1.40;;;1.40;;
6249;SDS011;3158;52.148;11.568;2023-07-13T02:27:43;1.70;;;1.10;;
6249;SDS011;3158;52.148;11.568;2023-07-13T02:32:44;1.23;;;1.23;;
6249;SDS011;3158;52.148;11.568;2023-07-13T02:37:45;1.85;;;1.60;;
6249;SDS011;3158;52.148;11.568;2023-07-13T02:42:46;1.45;;;1.45;;
6249;SDS011;3158;52.148;11.568;2023-07-13T02:47:47;1.23;;;1.15;;
6249;SDS011;3158;52.148;11.568;2023-07-13T02:52:48;0.95;;;0.88;;
6249;SDS011;3158;52.148;11.568;2023-07-13T02:57:50;1.50;;;1.50;;
6249;SDS011;3158;52.148;11.568;2023-07-13T03:02:52;0.80;;;0.80;;
6249;SDS011;3158;52.148;11.568;2023-07-13T03:07:53;0.75;;;0.75;;
6249;SDS011;3158;52.148;11.568;2023-07-13T03:12:55;1.08;;;1.08;;
6249;SDS011;3158;52.148;11.568;2023-07-13T03:18:00;0.75;;;0.75;;
6249;SDS011;3158;52.148;11.568;2023-07-13T03:23:01;1.75;;;1.10;;
6249;SDS011;3158;52.148;11.568;2023-07-13T03:28:03;1.65;;;1.08;;
6249;SDS011;3158;52.148;11.568;2023-07-13T03:33:06;0.82;;;0.82;;
6249;SDS011;3158;52.148;11.568;2023-07-13T03:38:07;1.40;;;1.30;;
6249;SDS011;3158;52.148;11.568;2023-07-13T03:43:08;0.90;;;0.90;;
6249;SDS011;3158;52.148;11.568;2023-07-13T03:48:10;1.10;;;0.90;;
6249;SDS011;3158;52.148;11.568;2023-07-13T03:53:11;1.55;;;0.70;;
6249;SDS011;3158;52.148;11.568;2023-07-13T04:03:27;1.17;;;0.80;;
6249;SDS011;3158;52.148;11.568;2023-07-13T04:08:32;1.05;;;1.05;;
6249;SDS011;3158;52.148;11.568;2023-07-13T04:13:34;1.75;;;0.80;;
6249;SDS011;3158;52.148;11.568;2023-07-13T04:18:35;1.50;;;1.30;;
6249;SDS011;3158;52.148;11.568;2023-07-13T04:23:36;0.80;;;0.77;;
6249;SDS011;3158;52.148;11.568;2023-07-13T04:28:37;2.65;;;1.13;;
6249;SDS011;3158;52.148;11.568;2023-07-13T04:33:39;1.10;;;1.10;;
6249;SDS011;3158;52.148;11.568;2023-07-13T04:38:40;3.78;;;1.30;;
6249;SDS011;3158;52.148;11.568;2023-07-13T04:43:41;2.05;;;1.10;;
6249;SDS011;3158;52.148;11.568;2023-07-13T04:48:43;1.45;;;1.45;;
6249;SDS011;3158;52.148;11.568;2023-07-13T04:53:44;3.72;;;1.00;;
6249;SDS011;3158;52.148;11.568;2023-07-13T04:58:45;4.78;;;1.20;;
6249;SDS011;3158;52.148;11.568;2023-07-13T05:03:46;1.67;;;1.58;;
6249;SDS011;3158;52.148;11.568;2023-07-13T05:08:47;1.15;;;1.13;;
6249;SDS011;3158;52.148;11.568;2023-07-13T05:13:48;1.13;;;1.08;;
6249;SDS011;3158;52.148;11.568;2023-07-13T05:18:49;1.00;;;1.00;;
6249;SDS011;3158;52.148;11.568;2023-07-13T05:23:50;3.17;;;1.00;;
6249;SDS011;3158;52.148;11.568;2023-07-13T05:28:51;2.00;;;1.10;;
6249;SDS011;3158;52.148;11.568;2023-07-13T05:33:52;1.85;;;1.00;;
6249;SDS011;3158;52.148;11.568;2023-07-13T05:38:53;1.30;;;1.00;;
6249;SDS011;3158;52.148;11.568;2023-07-13T05:43:54;1.23;;;1.23;;
6249;SDS011;3158;52.148;11.568;2023-07-13T05:48:55;1.20;;;1.20;;
6249;SDS011;3158;52.148;11.568;2023-07-13T05:53:56;1.00;;;1.00;;
6249;SDS011;3158;52.148;11.568;2023-07-13T05:58:57;1.17;;;1.13;;
6249;SDS011;3158;52.148;11.568;2023-07-13T06:03:58;0.98;;;0.98;;
6249;SDS011;3158;52.148;11.568;2023-07-13T06:08:59;0.80;;;0.80;;
6249;SDS011;3158;52.148;11.568;2023-07-13T06:14:01;0.73;;;0.73;;
6249;SDS011;3158;52.148;11.568;2023-07-13T06:19:02;1.45;;;0.68;;
6249;SDS011;3158;52.148;11.568;2023-07-13T06:24:03;1.13;;;0.90;;
6249;SDS011;3158;52.148;11.568;2023-07-13T06:29:04;1.30;;;0.82;;
6249;SDS011;3158;52.148;11.568;2023-07-13T06:34:05;1.33;;;0.65;;
6249;SDS011;3158;52.148;11.568;2023-07-13T06:39:06;1.10;;;0.60;;
6249;SDS011;3158;52.148;11.568;2023-07-13T06:44:07;0.52;;;0.45;;
6249;SDS011;3158;52.148;11.568;2023-07-13T06:49:08;1.23;;;0.63;;
6249;SDS011;3158;52.148;11.568;2023-07-13T06:54:09;1.27;;;0.50;;
6249;SDS011;3158;52.148;11.568;2023-07-13T06:59:10;2.45;;;0.50;;
6249;SDS011;3158;52.148;11.568;2023-07-13T07:04:12;2.80;;;0.80;;
6249;SDS011;3158;52.148;11.568;2023-07-13T07:09:13;1.90;;;0.45;;
6249;SDS011;3158;52.148;11.568;2023-07-13T07:14:14;0.50;;;0.50;;
6249;SDS011;3158;52.148;11.568;2023-07-13T07:19:16;1.67;;;0.50;;
6249;SDS011;3158;52.148;11.568;2023-07-13T07:24:17;1.45;;;0.60;;
6249;SDS011;3158;52.148;11.568;2023-07-13T07:29:18;1.55;;;0.52;;
6249;SDS011;3158;52.148;11.568;2023-07-13T07:34:19;1.40;;;0.68;;
6249;SDS011;3158;52.148;11.568;2023-07-13T07:39:20;0.32;;;0.32;;
6249;SDS011;3158;52.148;11.568;2023-07-13T07:44:21;2.03;;;0.95;;
6249;SDS011;3158;52.148;11.568;2023-07-13T07:49:22;2.47;;;0.55;;
6249;SDS011;3158;52.148;11.568;2023-07-13T07:54:23;2.45;;;0.60;;
6249;SDS011;3158;52.148;11.568;2023-07-13T07:59:24;1.20;;;0.68;;
6249;SDS011;3158;52.148;11.568;2023-07-13T08:04:26;1.08;;;0.50;;
6249;SDS011;3158;52.148;11.568;2023-07-13T08:09:26;1.30;;;0.80;;
6249;SDS011;3158;52.148;11.568;2023-07-13T08:14:27;2.85;;;1.05;;
6249;SDS011;3158;52.148;11.568;2023-07-13T08:19:29;0.65;;;0.60;;
6249;SDS011;3158;52.148;11.568;2023-07-13T08:24:30;0.75;;;0.63;;
6249;SDS011;3158;52.148;11.568;2023-07-13T08:29:31;1.13;;;0.77;;
6249;SDS011;3158;52.148;11.568;2023-07-13T08:34:32;0.30;;;0.30;;
6249;SDS011;3158;52.148;11.568;2023-07-13T08:39:33;0.47;;;0.47;;
6249;SDS011;3158;52.148;11.568;2023-07-13T08:44:39;0.40;;;0.40;;
6249;SDS011;3158;52.148;11.568;2023-07-13T08:49:45;1.50;;;0.40;;
6249;SDS011;3158;52.148;11.568;2023-07-13T08:54:48;0.70;;;0.60;;
6249;SDS011;3158;52.148;11.568;2023-07-13T08:59:50;3.60;;;0.50;;
6249;SDS011;3158;52.148;11.568;2023-07-13T09:04:59;1.70;;;0.45;;
6249;SDS011;3158;52.148;11.568;2023-07-13T09:10:05;2.88;;;0.65;;
6249;SDS011;3158;52.148;11.568;2023-07-13T09:15:21;3.72;;;0.63;;
6249;SDS011;3158;52.148;11.568;2023-07-13T09:20:32;1.55;;;0.40;;
6249;SDS011;3158;52.148;11.568;2023-07-13T09:25:34;1.45;;;0.60;;
6249;SDS011;3158;52.148;11.568;2023-07-13T09:30:37;0.32;;;0.32;;
6249;SDS011;3158;52.148;11.568;2023-07-13T09:35:40;0.43;;;0.43;;
6249;SDS011;3158;52.148;11.568;2023-07-13T09:40:44;1.88;;;0.50;;
6249;SDS011;3158;52.148;11.568;2023-07-13T09:45:48;1.20;;;0.50;;
6249;SDS011;3158;52.148;11.568;2023-07-13T09:50:49;1.05;;;0.32;;
6249;SDS011;3158;52.148;11.568;2023-07-13T09:55:56;0.25;;;0.25;;
6249;SDS011;3158;52.148;11.568;2023-07-13T10:00:58;0.73;;;0.32;;
6249;SDS011;3158;52.148;11.568;2023-07-13T10:06:12;0.45;;;0.40;;
6249;SDS011;3158;52.148;11.568;2023-07-13T10:11:21;0.52;;;0.40;;
6249;SDS011;3158;52.148;11.568;2023-07-13T10:16:23;0.40;;;0.40;;
6249;SDS011;3158;52.148;11.568;2023-07-13T10:21:27;1.45;;;0.40;;
6249;SDS011;3158;52.148;11.568;2023-07-13T10:26:31;2.05;;;0.30;;
6249;SDS011;3158;52.148;11.568;2023-07-13T10:31:32;4.88;;;0.60;;
6249;SDS011;3158;52.148;11.568;2023-07-13T10:36:43;1.17;;;0.40;;
6249;SDS011;3158;52.148;11.568;2023-07-13T10:41:46;0.40;;;0.40;;
6249;SDS011;3158;52.148;11.568;2023-07-13T10:46:47;1.55;;;0.60;;
6249;SDS011;3158;52.148;11.568;2023-07-13T10:51:49;0.57;;;0.40;;
6249;SDS011;3158;52.148;11.568;2023-07-13T11:02:12;0.20;;;0.20;;
6249;SDS011;3158;52.148;11.568;2023-07-13T11:07:26;0.20;;;0.20;;
6249;SDS011;3158;52.148;11.568;2023-07-13T11:12:29;2.38;;;0.20;;
6249;SDS011;3158;52.148;11.568;2023-07-13T11:17:50;1.27;;;0.40;;
6249;SDS011;3158;52.148;11.568;2023-07-13T11:33:17;0.15;;;0.15;;
6249;SDS011;3158;52.148;11.568;2023-07-13T11:38:19;0.95;;;0.30;;
6249;SDS011;3158;52.148;11.568;2023-07-13T11:43:20;0.70;;;0.45;;
6249;SDS011;3158;52.148;11.568;2023-07-13T11:48:29;0.30;;;0.30;;
6249;SDS011;3158;52.148;11.568;2023-07-13T11:53:37;1.75;;;0.30;;
6249;SDS011;3158;52.148;11.568;2023-07-13T11:58:39;1.17;;;0.30;;
6249;SDS011;3158;52.148;11.568;2023-07-13T12:03:40;0.20;;;0.20;;
6249;SDS011;3158;52.148;11.568;2023-07-13T12:08:41;0.65;;;0.20;;
6249;SDS011;3158;52.148;11.568;2023-07-13T12:13:43;0.20;;;0.20;;
6249;SDS011;3158;52.148;11.568;2023-07-13T12:18:44;0.75;;;0.20;;
6249;SDS011;3158;52.148;11.568;2023-07-13T12:23:48;0.20;;;0.20;;
6249;SDS011;3158;52.148;11.568;2023-07-13T12:28:51;0.20;;;0.20;;
6249;SDS011;3158;52.148;11.568;2023-07-13T12:34:18;0.20;;;0.20;;
6249;SDS011;3158;52.148;11.568;2023-07-13T12:44:29;0.20;;;0.20;;
6249;SDS011;3158;52.148;11.568;2023-07-13T12:49:32;0.30;;;0.30;;
6249;SDS011;3158;52.148;11.568;2023-07-13T12:54:35;0.60;;;0.20;;
6249;SDS011;3158;52.148;11.568;2023-07-13T12:59:39;0.45;;;0.30;;
6249;SDS011;3158;52.148;11.568;2023-07-13T13:04:41;0.35;;;0.35;;
6249;SDS011;3158;52.148;11.568;2023-07-13T13:09:43;0.40;;;0.40;;
6249;SDS011;3158;52.148;11.568;2023-07-13T13:14:44;0.40;;;0.40;;
6249;SDS011;3158;52.148;11.568;2023-07-13T13:19:46;0.20;;;0.20;;
6249;SDS011;3158;52.148;11.568;2023-07-13T13:24:47;0.20;;;0.20;;
6249;SDS011;3158;52.148;11.568;2023-07-13T13:29:49;0.30;;;0.30;;
6249;SDS011;3158;52.148;11.568;2023-07-13T13:34:54;0.43;;;0.30;;
6249;SDS011;3158;52.148;11.568;2023-07-13T13:39:55;0.30;;;0.30;;
6249;SDS011;3158;52.148;11.568;2023-07-13T13:44:57;1.27;;;0.30;;
6249;SDS011;3158;52.148;11.568;2023-07-13T13:49:59;0.55;;;0.30;;
6249;SDS011;3158;52.148;11.568;2023-07-13T13:55:00;0.30;;;0.30;;
6249;SDS011;3158;52.148;11.568;2023-07-13T14:00:01;1.52;;;0.30;;
6249;SDS011;3158;52.148;11.568;2023-07-13T14:05:05;0.50;;;0.50;;
6249;SDS011;3158;52.148;11.568;2023-07-13T14:10:11;0.43;;;0.22;;
6249;SDS011;3158;52.148;11.568;2023-07-13T14:15:17;0.38;;;0.38;;
6249;SDS011;3158;52.148;11.568;2023-07-13T14:20:19;0.30;;;0.30;;
6249;SDS011;3158;52.148;11.568;2023-07-13T14:25:20;0.70;;;0.40;;
6249;SDS011;3158;52.148;11.568;2023-07-13T14:30:21;0.30;;;0.30;;
6249;SDS011;3158;52.148;11.568;2023-07-13T14:35:23;0.68;;;0.35;;
6249;SDS011;3158;52.148;11.568;2023-07-13T14:40:28;0.30;;;0.30;;
6249;SDS011;3158;52.148;11.568;2023-07-13T14:45:30;1.77;;;0.30;;
6249;SDS011;3158;52.148;11.568;2023-07-13T14:50:32;0.40;;;0.40;;
6249;SDS011;3158;52.148;11.568;2023-07-13T14:55:34;0.30;;;0.30;;
6249;SDS011;3158;52.148;11.568;2023-07-13T15:00:36;3.15;;;0.32;;
6249;SDS011;3158;52.148;11.568;2023-07-13T15:05:37;0.25;;;0.25;;
6249;SDS011;3158;52.148;11.568;2023-07-13T15:10:40;0.73;;;0.70;;
6249;SDS011;3158;52.148;11.568;2023-07-13T15:15:42;0.95;;;0.30;;
6249;SDS011;3158;52.148;11.568;2023-07-13T15:20:44;0.43;;;0.43;;
6249;SDS011;3158;52.148;11.568;2023-07-13T15:25:46;0.30;;;0.30;;
6249;SDS011;3158;52.148;11.568;2023-07-13T15:30:48;0.30;;;0.30;;
6249;SDS011;3158;52.148;11.568;2023-07-13T15:35:49;0.30;;;0.30;;
6249;SDS011;3158;52.148;11.568;2023-07-13T15:40:51;2.65;;;0.70;;
6249;SDS011;3158;52.148;11.568;2023-07-13T15:45:52;0.35;;;0.35;;
6249;SDS011;3158;52.148;11.568;2023-07-13T15:50:54;1.10;;;0.40;;
6249;SDS011;3158;52.148;11.568;2023-07-13T15:55:56;0.73;;;0.35;;
6249;SDS011;3158;52.148;11.568;2023-07-13T16:00:58;2.25;;;0.30;;
6249;SDS011;3158;52.148;11.568;2023-07-13T16:05:59;2.80;;;0.38;;
6249;SDS011;3158;52.148;11.568;2023-07-13T16:11:00;1.83;;;0.47;;
6249;SDS011;3158;52.148;11.568;2023-07-13T16:16:03;0.40;;;0.40;;
6249;SDS011;3158;52.148;11.568;2023-07-13T16:21:12;0.50;;;0.50;;
6249;SDS011;3158;52.148;11.568;2023-07-13T16:26:21;1.33;;;0.50;;
6249;SDS011;3158;52.148;11.568;2023-07-13T16:31:23;0.50;;;0.35;;
6249;SDS011;3158;52.148;11.568;2023-07-13T16:36:24;0.57;;;0.40;;
6249;SDS011;3158;52.148;11.568;2023-07-13T16:41:25;0.30;;;0.30;;
6249;SDS011;3158;52.148;11.568;2023-07-13T16:46:26;0.40;;;0.40;;
6249;SDS011;3158;52.148;11.568;2023-07-13T16:51:27;0.40;;;0.40;;
6249;SDS011;3158;52.148;11.568;2023-07-13T16:56:29;0.55;;;0.20;;
6249;SDS011;3158;52.148;11.568;2023-07-13T17:01:34;0.30;;;0.30;;
6249;SDS011;3158;52.148;11.568;2023-07-13T17:06:36;0.32;;;0.32;;
6249;SDS011;3158;52.148;11.568;2023-07-13T17:11:37;0.38;;;0.38;;
6249;SDS011;3158;52.148;11.568;2023-07-13T17:16:40;0.65;;;0.40;;
6249;SDS011;3158;52.148;11.568;2023-07-13T17:21:43;0.30;;;0.30;;
6249;SDS011;3158;52.148;11.568;2023-07-13T17:26:45;0.38;;;0.38;;
6249;SDS011;3158;52.148;11.568;2023-07-13T17:31:46;0.35;;;0.35;;
6249;SDS011;3158;52.148;11.568;2023-07-13T17:36:49;0.30;;;0.30;;
6249;SDS011;3158;52.148;11.568;2023-07-13T17:41:50;0.28;;;0.28;;
6249;SDS011;3158;52.148;11.568;2023-07-13T17:46:51;0.55;;;0.55;;
6249;SDS011;3158;52.148;11.568;2023-07-13T17:51:52;0.35;;;0.35;;
6249;SDS011;3158;52.148;11.568;2023-07-13T17:56:53;1.10;;;0.50;;
6249;SDS011;3158;52.148;11.568;2023-07-13T18:01:54;0.30;;;0.30;;
6249;SDS011;3158;52.148;11.568;2023-07-13T18:06:56;1.45;;;0.30;;
6249;SDS011;3158;52.148;11.568;2023-07-13T18:12:08;0.30;;;0.30;;
6249;SDS011;3158;52.148;11.568;2023-07-13T18:17:10;0.32;;;0.32;;
6249;SDS011;3158;52.148;11.568;2023-07-13T18:22:14;0.35;;;0.35;;
6249;SDS011;3158;52.148;11.568;2023-07-13T18:27:15;0.32;;;0.32;;
6249;SDS011;3158;52.148;11.568;2023-07-13T18:32:18;0.52;;;0.38;;
6249;SDS011;3158;52.148;11.568;2023-07-13T18:37:20;0.40;;;0.40;;
6249;SDS011;3158;52.148;11.568;2023-07-13T18:42:22;0.30;;;0.30;;
6249;SDS011;3158;52.148;11.568;2023-07-13T18:47:24;0.40;;;0.40;;
6249;SDS011;3158;52.148;11.568;2023-07-13T18:52:29;0.30;;;0.30;;
6249;SDS011;3158;52.148;11.568;2023-07-13T18:57:30;0.95;;;0.40;;
6249;SDS011;3158;52.148;11.568;2023-07-13T19:02:31;0.40;;;0.40;;
6249;SDS011;3158;52.148;11.568;2023-07-13T19:07:32;0.30;;;0.30;;
6249;SDS011;3158;52.148;11.568;2023-07-13T19:12:33;1.00;;;0.50;;
6249;SDS011;3158;52.148;11.568;2023-07-13T19:17:35;1.75;;;0.40;;
6249;SDS011;3158;52.148;11.568;2023-07-13T19:22:36;1.83;;;0.47;;
6249;SDS011;3158;52.148;11.568;2023-07-13T19:27:37;0.35;;;0.35;;
6249;SDS011;3158;52.148;11.568;2023-07-13T19:32:39;1.17;;;0.50;;
6249;SDS011;3158;52.148;11.568;2023-07-13T19:37:41;1.52;;;0.40;;
6249;SDS011;3158;52.148;11.568;2023-07-13T19:42:42;0.40;;;0.32;;
6249;SDS011;3158;52.148;11.568;2023-07-13T19:47:44;0.45;;;0.45;;
6249;SDS011;3158;52.148;11.568;2023-07-13T19:52:49;0.55;;;0.55;;
6249;SDS011;3158;52.148;11.568;2023-07-13T19:57:51;0.40;;;0.40;;
6249;SDS011;3158;52.148;11.568;2023-07-13T20:02:52;1.75;;;0.50;;
6249;SDS011;3158;52.148;11.568;2023-07-13T20:07:59;0.40;;;0.40;;
6249;SDS011;3158;52.148;11.568;2023-07-13T20:13:00;0.47;;;0.47;;
6249;SDS011;3158;52.148;11.568;2023-07-13T20:18:01;0.50;;;0.50;;
6249;SDS011;3158;52.148;11.568;2023-07-13T20:23:08;0.70;;;0.50;;
6249;SDS011;3158;52.148;11.568;2023-07-13T20:28:11;0.40;;;0.40;;
6249;SDS011;3158;52.148;11.568;2023-07-13T20:33:13;0.40;;;0.40;;
6249;SDS011;3158;52.148;11.568;2023-07-13T20:38:16;0.50;;;0.50;;
6249;SDS011;3158;52.148;11.568;2023-07-13T20:43:18;0.50;;;0.50;;
6249;SDS011;3158;52.148;11.568;2023-07-13T20:48:27;0.60;;;0.60;;
6249;SDS011;3158;52.148;11.568;2023-07-13T20:53:28;1.63;;;0.77;;
6249;SDS011;3158;52.148;11.568;2023-07-13T20:58:30;1.70;;;0.80;;
6249;SDS011;3158;52.148;11.568;2023-07-13T21:03:31;0.60;;;0.60;;
6249;SDS011;3158;52.148;11.568;2023-07-13T21:08:32;1.75;;;1.00;;
6249;SDS011;3158;52.148;11.568;2023-07-13T21:13:33;2.88;;;2.65;;
6249;SDS011;3158;52.148;11.568;2023-07-13T21:18:36;2.42;;;1.35;;
6249;SDS011;3158;52.148;11.568;2023-07-13T21:23:38;1.02;;;1.02;;
6249;SDS011;3158;52.148;11.568;2023-07-13T21:28:40;1.75;;;0.90;;
6249;SDS011;3158;52.148;11.568;2023-07-13T21:33:41;0.80;;;0.80;;
6249;SDS011;3158;52.148;11.568;2023-07-13T21:38:42;1.27;;;0.82;;
6249;SDS011;3158;52.148;11.568;2023-07-13T21:43:45;0.50;;;0.50;;
6249;SDS011;3158;52.148;11.568;2023-07-13T21:48:46;0.60;;;0.60;;
6249;SDS011;3158;52.148;11.568;2023-07-13T21:53:48;0.75;;;0.63;;
6249;SDS011;3158;52.148;11.568;2023-07-13T21:58:49;0.68;;;0.68;;
6249;SDS011;3158;52.148;11.568;2023-07-13T22:03:54;0.57;;;0.57;;
6249;SDS011;3158;52.148;11.568;2023-07-13T22:08:55;0.60;;;0.60;;
6249;SDS011;3158;52.148;11.568;2023-07-13T22:13:59;0.40;;;0.40;;
6249;SDS011;3158;52.148;11.568;2023-07-13T22:19:05;0.50;;;0.50;;
6249;SDS011;3158;52.148;11.568;2023-07-13T22:24:13;0.70;;;0.70;;
6249;SDS011;3158;52.148;11.568;2023-07-13T22:29:20;0.68;;;0.68;;
6249;SDS011;3158;52.148;11.568;2023-07-13T22:34:23;1.95;;;0.70;;
6249;SDS011;3158;52.148;11.568;2023-07-13T22:39:26;0.70;;;0.70;;
6249;SDS011;3158;52.148;11.568;2023-07-13T22:44:27;4.22;;;0.73;;
6249;SDS011;3158;52.148;11.568;2023-07-13T22:49:31;0.80;;;0.80;;
6249;SDS011;3158;52.148;11.568;2023-07-13T22:54:32;2.17;;;0.80;;
6249;SDS011;3158;52.148;11.568;2023-07-13T22:59:34;0.70;;;0.70;;
6249;SDS011;3158;52.148;11.568;2023-07-13T23:04:36;1.65;;;0.80;;
6249;SDS011;3158;52.148;11.568;2023-07-13T23:09:37;0.90;;;0.90;;
6249;SDS011;3158;52.148;11.568;2023-07-13T23:14:38;0.90;;;0.90;;
6249;SDS011;3158;52.148;11.568;2023-07-13T23:19:40;1.33;;;0.98;;
6249;SDS011;3158;52.148;11.568;2023-07-13T23:24:41;0.60;;;0.60;;
6249;SDS011;3158;52.148;11.568;2023-07-13T23:29:42;1.00;;;1.00;;
6249;SDS011;3158;52.148;11.568;2023-07-13T23:34:43;2.10;;;0.65;;
6249;SDS011;3158;52.148;11.568;2023-07-13T23:39:44;0.82;;;0.82;;
6249;SDS011;3158;52.148;11.568;2023-07-13T23:44:45;2.97;;;0.90;;
6249;SDS011;3158;52.148;11.568;2023-07-13T23:49:46;0.70;;;0.70;;
6249;SDS011;3158;52.148;11.568;2023-07-13T23:54:47;0.73;;;0.73;;
6249;SDS011;3158;52.148;11.568;2023-07-13T23:59:48;1.85;;;0.90;;
